Time,TemperatureF,DewpointF,PressureIn,WindDirection,WindDirectionDegrees,WindSpeedMPH,WindSpeedGustMPH,Humidity,HourlyPrecipIn,Conditions,Clouds,dailyrainin,SoftwareType,DateUTC
2013-09-06 00:01:00,55.0,37.8,30.19,North,-999,-999.0,-999.0,52,-99.99,,,-99.99,,2013-09-06 04:01:00,
2013-09-06 00:02:00,55.0,37.8,30.19,North,-999,-999.0,-999.0,52,-99.99,,,-99.99,,2013-09-06 04:02:00,
2013-09-06 00:07:00,54.9,37.6,30.19,North,-999,-999.0,-999.0,52,-99.99,,,-99.99,,2013-09-06 04:07:00,
2013-09-06 00:09:00,54.7,37.4,30.19,North,-999,-999.0,-999.0,52,-99.99,,,-99.99,,2013-09-06 04:09:00,
2013-09-06 00:11:00,54.7,37.4,30.19,North,-999,-999.0,-999.0,52,-99.99,,,-99.99,,2013-09-06 04:11:00,
2013-09-06 00:12:00,54.7,37.4,30.19,North,-999,-999.0,-999.0,52,-99.99,,,-99.99,,2013-09-06 04:12:00,
2013-09-06 00:18:00,54.5,37.3,30.19,North,-999,-999.0,-999.0,52,-99.99,,,-99.99,,2013-09-06 04:18:00,
2013-09-06 00:23:00,54.5,37.7,30.19,North,-999,-999.0,-999.0,53,-99.99,,,-99.99,,2013-09-06 04:23:00,
2013-09-06 00:28:00,54.3,37.6,30.19,North,-999,-999.0,-999.0,53,-99.99,,,-99.99,,2013-09-06 04:28:00,
2013-09-06 00:33:00,54.3,37.6,30.19,North,-999,-999.0,-999.0,53,-99.99,,,-99.99,,2013-09-06 04:33:00,
2013-09-06 00:38:00,54.5,38.2,30.19,North,-999,-999.0,-999.0,54,-99.99,,,-99.99,,2013-09-06 04:38:00,
2013-09-06 00:44:00,54.5,38.2,30.19,North,-999,-999.0,-999.0,54,-99.99,,,-99.99,,2013-09-06 04:44:00,
2013-09-06 00:49:00,54.5,38.2,30.19,North,-999,-999.0,-999.0,54,-99.99,,,-99.99,,2013-09-06 04:49:00,
2013-09-06 00:54:00,54.7,38.4,30.19,North,-999,-999.0,-999.0,54,-99.99,,,-99.99,,2013-09-06 04:54:00,
2013-09-06 00:59:00,54.7,38.4,30.19,North,-999,-999.0,-999.0,54,-99.99,,,-99.99,,2013-09-06 04:59:00,
2013-09-06 01:04:00,54.7,38.4,30.19,North,-999,-999.0,-999.0,54,-99.99,,,-99.99,,2013-09-06 05:04:00,
2013-09-06 01:10:00,54.7,38.4,30.19,North,-999,-999.0,-999.0,54,-99.99,,,-99.99,,2013-09-06 05:10:00,
2013-09-06 01:15:00,54.7,38.4,30.19,North,-999,-999.0,-999.0,54,-99.99,,,-99.99,,2013-09-06 05:15:00,
2013-09-06 01:20:00,54.7,38.4,30.19,North,-999,-999.0,-999.0,54,-99.99,,,-99.99,,2013-09-06 05:20:00,
2013-09-06 01:25:00,54.7,38.9,30.19,North,-999,-999.0,-999.0,55,-99.99,,,-99.99,,2013-09-06 05:25:00,
2013-09-06 01:30:00,54.5,38.7,30.19,North,-999,-999.0,-999.0,55,-99.99,,,-99.99,,2013-09-06 05:30:00,
2013-09-06 01:36:00,54.5,38.7,30.19,North,-999,-999.0,-999.0,55,-99.99,,,-99.99,,2013-09-06 05:36:00,
2013-09-06 01:42:00,54.5,38.7,30.19,North,-999,-999.0,-999.0,55,-99.99,,,-99.99,,2013-09-06 05:42:00,
2013-09-06 01:47:00,54.5,38.7,30.19,North,-999,-999.0,-999.0,55,-99.99,,,-99.99,,2013-09-06 05:47:00,
2013-09-06 01:52:00,54.3,38.5,30.19,North,-999,-999.0,-999.0,55,-99.99,,,-99.99,,2013-09-06 05:52:00,
2013-09-06 01:57:00,54.3,39.0,30.19,North,-999,-999.0,-999.0,56,-99.99,,,-99.99,,2013-09-06 05:57:00,
2013-09-06 02:02:00,54.1,38.8,30.19,North,-999,-999.0,-999.0,56,-99.99,,,-99.99,,2013-09-06 06:02:00,
2013-09-06 02:08:00,54.0,39.1,30.19,North,-999,-999.0,-999.0,57,-99.99,,,-99.99,,2013-09-06 06:08:00,
2013-09-06 02:13:00,53.8,38.9,30.19,North,-999,-999.0,-999.0,57,-99.99,,,-99.99,,2013-09-06 06:13:00,
2013-09-06 02:18:00,53.6,38.8,30.19,North,-999,-999.0,-999.0,57,-99.99,,,-99.99,,2013-09-06 06:18:00,
2013-09-06 02:23:00,53.4,38.6,30.19,North,-999,-999.0,-999.0,57,-99.99,,,-99.99,,2013-09-06 06:23:00,
2013-09-06 02:28:00,53.2,38.4,30.19,North,-999,-999.0,-999.0,57,-99.99,,,-99.99,,2013-09-06 06:28:00,
2013-09-06 02:34:00,53.1,38.7,30.19,North,-999,-999.0,-999.0,58,-99.99,,,-99.99,,2013-09-06 06:34:00,
2013-09-06 02:39:00,53.1,38.7,30.19,North,-999,-999.0,-999.0,58,-99.99,,,-99.99,,2013-09-06 06:39:00,
2013-09-06 02:44:00,52.9,38.5,30.19,North,-999,-999.0,-999.0,58,-99.99,,,-99.99,,2013-09-06 06:44:00,
2013-09-06 02:49:00,52.9,39.0,30.19,North,-999,-999.0,-999.0,59,-99.99,,,-99.99,,2013-09-06 06:49:00,
2013-09-06 02:55:00,52.5,38.6,30.19,North,-999,-999.0,-999.0,59,-99.99,,,-99.99,,2013-09-06 06:55:00,
2013-09-06 03:00:00,52.3,38.5,30.19,North,-999,-999.0,-999.0,59,-99.99,,,-99.99,,2013-09-06 07:00:00,
2013-09-06 03:05:00,52.3,38.5,30.19,North,-999,-999.0,-999.0,59,-99.99,,,-99.99,,2013-09-06 07:05:00,
2013-09-06 03:11:00,52.2,38.3,30.22,North,-999,-999.0,-999.0,59,-99.99,,,-99.99,,2013-09-06 07:11:00,
2013-09-06 03:16:00,52.2,38.3,30.22,North,-999,-999.0,-999.0,59,-99.99,,,-99.99,,2013-09-06 07:16:00,
2013-09-06 03:21:00,52.0,38.1,30.22,North,-999,-999.0,-999.0,59,-99.99,,,-99.99,,2013-09-06 07:21:00,
2013-09-06 03:26:00,51.8,38.0,30.22,North,-999,-999.0,-999.0,59,-99.99,,,-99.99,,2013-09-06 07:26:00,
2013-09-06 03:31:00,51.8,38.0,30.22,North,-999,-999.0,-999.0,59,-99.99,,,-99.99,,2013-09-06 07:31:00,
2013-09-06 03:37:00,51.8,38.0,30.22,North,-999,-999.0,-999.0,59,-99.99,,,-99.99,,2013-09-06 07:37:00,
2013-09-06 03:42:00,51.6,38.2,30.22,North,-999,-999.0,-999.0,60,-99.99,,,-99.99,,2013-09-06 07:42:00,
2013-09-06 03:47:00,51.6,38.2,30.22,North,-999,-999.0,-999.0,60,-99.99,,,-99.99,,2013-09-06 07:47:00,
2013-09-06 03:52:00,51.6,38.2,30.22,North,-999,-999.0,-999.0,60,-99.99,,,-99.99,,2013-09-06 07:52:00,
2013-09-06 03:57:00,51.6,38.2,30.22,North,-999,-999.0,-999.0,60,-99.99,,,-99.99,,2013-09-06 07:57:00,
2013-09-06 04:03:00,51.6,38.2,30.22,North,-999,-999.0,-999.0,60,-99.99,,,-99.99,,2013-09-06 08:03:00,
2013-09-06 04:08:00,51.4,38.0,30.22,North,-999,-999.0,-999.0,60,-99.99,,,-99.99,,2013-09-06 08:08:00,
2013-09-06 04:13:00,51.4,38.0,30.22,North,-999,-999.0,-999.0,60,-99.99,,,-99.99,,2013-09-06 08:13:00,
2013-09-06 04:18:00,51.3,37.9,30.22,North,-999,-999.0,-999.0,60,-99.99,,,-99.99,,2013-09-06 08:18:00,
2013-09-06 04:23:00,51.3,38.3,30.22,North,-999,-999.0,-999.0,61,-99.99,,,-99.99,,2013-09-06 08:23:00,
2013-09-06 04:29:00,51.1,38.1,30.22,North,-999,-999.0,-999.0,61,-99.99,,,-99.99,,2013-09-06 08:29:00,
2013-09-06 04:34:00,51.1,38.1,30.22,North,-999,-999.0,-999.0,61,-99.99,,,-99.99,,2013-09-06 08:34:00,
2013-09-06 04:39:00,51.1,38.1,30.22,North,-999,-999.0,-999.0,61,-99.99,,,-99.99,,2013-09-06 08:39:00,
2013-09-06 04:44:00,50.9,38.0,30.22,North,-999,-999.0,-999.0,61,-99.99,,,-99.99,,2013-09-06 08:44:00,
2013-09-06 04:49:00,50.9,38.0,30.22,North,-999,-999.0,-999.0,61,-99.99,,,-99.99,,2013-09-06 08:49:00,
2013-09-06 04:55:00,50.7,38.2,30.22,North,-999,-999.0,-999.0,62,-99.99,,,-99.99,,2013-09-06 08:55:00,
2013-09-06 05:00:00,50.7,38.2,30.22,North,-999,-999.0,-999.0,62,-99.99,,,-99.99,,2013-09-06 09:00:00,
2013-09-06 05:05:00,50.5,38.0,30.22,North,-999,-999.0,-999.0,62,-99.99,,,-99.99,,2013-09-06 09:05:00,
2013-09-06 05:10:00,50.5,38.0,30.22,North,-999,-999.0,-999.0,62,-99.99,,,-99.99,,2013-09-06 09:10:00,
2013-09-06 05:15:00,50.5,38.0,30.22,North,-999,-999.0,-999.0,62,-99.99,,,-99.99,,2013-09-06 09:15:00,
2013-09-06 05:21:00,50.4,38.3,30.22,North,-999,-999.0,-999.0,63,-99.99,,,-99.99,,2013-09-06 09:21:00,
2013-09-06 05:26:00,50.4,38.3,30.22,North,-999,-999.0,-999.0,63,-99.99,,,-99.99,,2013-09-06 09:26:00,
2013-09-06 05:31:00,50.2,38.1,30.22,North,-999,-999.0,-999.0,63,-99.99,,,-99.99,,2013-09-06 09:31:00,
2013-09-06 05:36:00,50.2,38.1,30.22,North,-999,-999.0,-999.0,63,-99.99,,,-99.99,,2013-09-06 09:36:00,
2013-09-06 05:41:00,50.2,38.1,30.22,North,-999,-999.0,-999.0,63,-99.99,,,-99.99,,2013-09-06 09:41:00,
2013-09-06 05:47:00,50.0,37.9,30.22,North,-999,-999.0,-999.0,63,-99.99,,,-99.99,,2013-09-06 09:47:00,
2013-09-06 05:52:00,50.0,38.3,30.22,North,-999,-999.0,-999.0,64,-99.99,,,-99.99,,2013-09-06 09:52:00,
2013-09-06 05:57:00,49.8,38.2,30.22,North,-999,-999.0,-999.0,64,-99.99,,,-99.99,,2013-09-06 09:57:00,
2013-09-06 06:02:00,49.8,38.2,30.22,North,-999,-999.0,-999.0,64,-99.99,,,-99.99,,2013-09-06 10:02:00,
2013-09-06 06:08:00,49.8,38.2,30.22,North,-999,-999.0,-999.0,64,-99.99,,,-99.99,,2013-09-06 10:08:00,
2013-09-06 06:13:00,49.6,38.4,30.22,North,-999,-999.0,-999.0,65,-99.99,,,-99.99,,2013-09-06 10:13:00,
2013-09-06 06:18:00,49.6,38.4,30.22,North,-999,-999.0,-999.0,65,-99.99,,,-99.99,,2013-09-06 10:18:00,
2013-09-06 06:24:00,49.5,38.2,30.22,North,-999,-999.0,-999.0,65,-99.99,,,-99.99,,2013-09-06 10:24:00,
2013-09-06 06:29:00,49.5,38.2,30.22,North,-999,-999.0,-999.0,65,-99.99,,,-99.99,,2013-09-06 10:29:00,
2013-09-06 06:34:00,49.5,38.2,30.22,North,-999,-999.0,-999.0,65,-99.99,,,-99.99,,2013-09-06 10:34:00,
2013-09-06 06:39:00,49.5,38.2,30.24,North,-999,-999.0,-999.0,65,-99.99,,,-99.99,,2013-09-06 10:39:00,
2013-09-06 06:44:00,49.5,38.2,30.24,North,-999,-999.0,-999.0,65,-99.99,,,-99.99,,2013-09-06 10:44:00,
2013-09-06 06:50:00,49.3,38.0,30.24,North,-999,-999.0,-999.0,65,-99.99,,,-99.99,,2013-09-06 10:50:00,
2013-09-06 06:55:00,49.5,38.2,30.24,North,-999,-999.0,-999.0,65,-99.99,,,-99.99,,2013-09-06 10:55:00,
2013-09-06 07:00:00,49.3,38.0,30.24,North,-999,-999.0,-999.0,65,-99.99,,,-99.99,,2013-09-06 11:00:00,
2013-09-06 07:05:00,49.3,38.0,30.24,North,-999,-999.0,-999.0,65,-99.99,,,-99.99,,2013-09-06 11:05:00,
2013-09-06 07:11:00,49.3,38.0,30.24,North,-999,-999.0,-999.0,65,-99.99,,,-99.99,,2013-09-06 11:11:00,
2013-09-06 07:16:00,49.5,38.2,30.24,North,-999,-999.0,-999.0,65,-99.99,,,-99.99,,2013-09-06 11:16:00,
2013-09-06 07:22:00,49.6,38.4,30.24,North,-999,-999.0,-999.0,65,-99.99,,,-99.99,,2013-09-06 11:22:00,
2013-09-06 07:28:00,49.6,38.4,30.24,North,-999,-999.0,-999.0,65,-99.99,,,-99.99,,2013-09-06 11:28:00,
2013-09-06 07:33:00,50.4,38.7,30.24,North,-999,-999.0,-999.0,64,-99.99,,,-99.99,,2013-09-06 11:33:00,
2013-09-06 07:38:00,50.5,38.8,30.24,North,-999,-999.0,-999.0,64,-99.99,,,-99.99,,2013-09-06 11:38:00,
2013-09-06 07:44:00,53.8,40.7,30.24,North,-999,-999.0,-999.0,61,-99.99,,,-99.99,,2013-09-06 11:44:00,
2013-09-06 07:49:00,59.4,41.8,30.24,North,-999,-999.0,-999.0,52,-99.99,,,-99.99,,2013-09-06 11:49:00,
2013-09-06 07:54:00,57.7,39.3,30.24,North,-999,-999.0,-999.0,50,-99.99,,,-99.99,,2013-09-06 11:54:00,
2013-09-06 07:59:00,56.1,38.8,30.24,North,-999,-999.0,-999.0,52,-99.99,,,-99.99,,2013-09-06 11:59:00,
2013-09-06 08:04:00,55.9,39.1,30.24,North,-999,-999.0,-999.0,53,-99.99,,,-99.99,,2013-09-06 12:04:00,
2013-09-06 08:10:00,56.1,39.2,30.24,North,-999,-999.0,-999.0,53,-99.99,,,-99.99,,2013-09-06 12:10:00,
2013-09-06 08:15:00,55.2,38.9,30.24,North,-999,-999.0,-999.0,54,-99.99,,,-99.99,,2013-09-06 12:15:00,
2013-09-06 08:20:00,54.7,38.9,30.24,North,-999,-999.0,-999.0,55,-99.99,,,-99.99,,2013-09-06 12:20:00,
2013-09-06 08:25:00,54.5,39.2,30.24,North,-999,-999.0,-999.0,56,-99.99,,,-99.99,,2013-09-06 12:25:00,
2013-09-06 08:30:00,54.5,39.6,30.24,North,-999,-999.0,-999.0,57,-99.99,,,-99.99,,2013-09-06 12:30:00,
2013-09-06 08:36:00,54.5,39.6,30.24,North,-999,-999.0,-999.0,57,-99.99,,,-99.99,,2013-09-06 12:36:00,
2013-09-06 08:41:00,54.5,39.6,30.24,North,-999,-999.0,-999.0,57,-99.99,,,-99.99,,2013-09-06 12:41:00,
2013-09-06 08:47:00,54.7,40.2,30.24,North,-999,-999.0,-999.0,58,-99.99,,,-99.99,,2013-09-06 12:47:00,
2013-09-06 08:52:00,54.9,39.9,30.24,North,-999,-999.0,-999.0,57,-99.99,,,-99.99,,2013-09-06 12:52:00,
2013-09-06 08:57:00,54.9,39.9,30.24,North,-999,-999.0,-999.0,57,-99.99,,,-99.99,,2013-09-06 12:57:00,
2013-09-06 09:03:00,55.0,40.6,30.24,North,-999,-999.0,-999.0,58,-99.99,,,-99.99,,2013-09-06 13:03:00,
2013-09-06 09:08:00,55.2,40.7,30.24,North,-999,-999.0,-999.0,58,-99.99,,,-99.99,,2013-09-06 13:08:00,
2013-09-06 09:13:00,55.8,40.8,30.24,North,-999,-999.0,-999.0,57,-99.99,,,-99.99,,2013-09-06 13:13:00,
2013-09-06 09:18:00,56.7,41.6,30.24,North,-999,-999.0,-999.0,57,-99.99,,,-99.99,,2013-09-06 13:18:00,
2013-09-06 09:24:00,57.2,41.7,30.24,North,-999,-999.0,-999.0,56,-99.99,,,-99.99,,2013-09-06 13:24:00,
2013-09-06 09:30:00,57.6,41.5,30.24,North,-999,-999.0,-999.0,55,-99.99,,,-99.99,,2013-09-06 13:30:00,
2013-09-06 09:35:00,57.7,41.2,30.24,North,-999,-999.0,-999.0,54,-99.99,,,-99.99,,2013-09-06 13:35:00,
2013-09-06 09:40:00,57.7,40.8,30.24,North,-999,-999.0,-999.0,53,-99.99,,,-99.99,,2013-09-06 13:40:00,
2013-09-06 09:45:00,58.1,41.1,30.24,North,-999,-999.0,-999.0,53,-99.99,,,-99.99,,2013-09-06 13:45:00,
2013-09-06 09:50:00,58.8,41.8,30.24,North,-999,-999.0,-999.0,53,-99.99,,,-99.99,,2013-09-06 13:50:00,
2013-09-06 09:56:00,60.3,42.6,30.24,North,-999,-999.0,-999.0,52,-99.99,,,-99.99,,2013-09-06 13:56:00,
2013-09-06 10:01:00,61.5,42.7,30.24,North,-999,-999.0,-999.0,50,-99.99,,,-99.99,,2013-09-06 14:01:00,
2013-09-06 10:07:00,62.6,42.7,30.24,North,-999,-999.0,-999.0,48,-99.99,,,-99.99,,2013-09-06 14:07:00,
2013-09-06 10:12:00,63.5,42.9,30.24,North,-999,-999.0,-999.0,47,-99.99,,,-99.99,,2013-09-06 14:12:00,
2013-09-06 10:17:00,63.9,42.7,30.24,North,-999,-999.0,-999.0,46,-99.99,,,-99.99,,2013-09-06 14:17:00,
2013-09-06 10:22:00,64.0,42.3,30.24,North,-999,-999.0,-999.0,45,-99.99,,,-99.99,,2013-09-06 14:22:00,
2013-09-06 10:27:00,64.4,42.6,30.24,North,-999,-999.0,-999.0,45,-99.99,,,-99.99,,2013-09-06 14:27:00,
2013-09-06 10:33:00,64.8,42.4,30.24,North,-999,-999.0,-999.0,44,-99.99,,,-99.99,,2013-09-06 14:33:00,
2013-09-06 10:38:00,65.1,42.1,30.24,North,-999,-999.0,-999.0,43,-99.99,,,-99.99,,2013-09-06 14:38:00,
2013-09-06 10:44:00,65.8,43.3,30.24,North,-999,-999.0,-999.0,44,-99.99,,,-99.99,,2013-09-06 14:44:00,
2013-09-06 10:49:00,66.4,42.6,30.24,North,-999,-999.0,-999.0,42,-99.99,,,-99.99,,2013-09-06 14:49:00,
2013-09-06 10:54:00,67.1,42.0,30.24,North,-999,-999.0,-999.0,40,-99.99,,,-99.99,,2013-09-06 14:54:00,
2013-09-06 11:00:00,67.6,40.5,30.24,North,-999,-999.0,-999.0,37,-99.99,,,-99.99,,2013-09-06 15:00:00,
2013-09-06 11:05:00,67.5,39.6,30.24,North,-999,-999.0,-999.0,36,-99.99,,,-99.99,,2013-09-06 15:05:00,
2013-09-06 11:10:00,68.4,40.4,30.24,North,-999,-999.0,-999.0,36,-99.99,,,-99.99,,2013-09-06 15:10:00,
2013-09-06 11:15:00,68.7,40.7,30.24,North,-999,-999.0,-999.0,36,-99.99,,,-99.99,,2013-09-06 15:15:00,
2013-09-06 11:21:00,69.3,40.5,30.24,North,-999,-999.0,-999.0,35,-99.99,,,-99.99,,2013-09-06 15:21:00,
2013-09-06 11:27:00,69.3,40.5,30.24,North,-999,-999.0,-999.0,35,-99.99,,,-99.99,,2013-09-06 15:27:00,
2013-09-06 11:32:00,69.6,40.8,30.24,North,-999,-999.0,-999.0,35,-99.99,,,-99.99,,2013-09-06 15:32:00,
2013-09-06 11:37:00,69.8,40.2,30.24,North,-999,-999.0,-999.0,34,-99.99,,,-99.99,,2013-09-06 15:37:00,
2013-09-06 11:42:00,70.0,40.4,30.24,North,-999,-999.0,-999.0,34,-99.99,,,-99.99,,2013-09-06 15:42:00,
2013-09-06 11:47:00,70.3,40.7,30.24,North,-999,-999.0,-999.0,34,-99.99,,,-99.99,,2013-09-06 15:47:00,
2013-09-06 11:53:00,70.5,40.1,30.24,North,-999,-999.0,-999.0,33,-99.99,,,-99.99,,2013-09-06 15:53:00,
2013-09-06 11:58:00,70.7,41.0,30.24,North,-999,-999.0,-999.0,34,-99.99,,,-99.99,,2013-09-06 15:58:00,
2013-09-06 12:04:00,70.7,40.2,30.24,North,-999,-999.0,-999.0,33,-99.99,,,-99.99,,2013-09-06 16:04:00,
2013-09-06 12:09:00,70.9,40.4,30.22,North,-999,-999.0,-999.0,33,-99.99,,,-99.99,,2013-09-06 16:09:00,
2013-09-06 12:14:00,70.9,40.4,30.22,North,-999,-999.0,-999.0,33,-99.99,,,-99.99,,2013-09-06 16:14:00,
2013-09-06 12:20:00,70.7,40.2,30.22,North,-999,-999.0,-999.0,33,-99.99,,,-99.99,,2013-09-06 16:20:00,
2013-09-06 12:25:00,71.1,40.5,30.22,North,-999,-999.0,-999.0,33,-99.99,,,-99.99,,2013-09-06 16:25:00,
2013-09-06 12:30:00,71.2,40.7,30.22,North,-999,-999.0,-999.0,33,-99.99,,,-99.99,,2013-09-06 16:30:00,
2013-09-06 12:36:00,71.4,40.8,30.22,North,-999,-999.0,-999.0,33,-99.99,,,-99.99,,2013-09-06 16:36:00,
2013-09-06 12:41:00,71.2,40.7,30.22,North,-999,-999.0,-999.0,33,-99.99,,,-99.99,,2013-09-06 16:41:00,
2013-09-06 12:47:00,71.1,40.5,30.22,North,-999,-999.0,-999.0,33,-99.99,,,-99.99,,2013-09-06 16:47:00,
2013-09-06 12:52:00,71.2,41.5,30.22,North,-999,-999.0,-999.0,34,-99.99,,,-99.99,,2013-09-06 16:52:00,
2013-09-06 12:58:00,71.6,41.0,30.22,North,-999,-999.0,-999.0,33,-99.99,,,-99.99,,2013-09-06 16:58:00,
2013-09-06 13:03:00,71.4,40.8,30.22,North,-999,-999.0,-999.0,33,-99.99,,,-99.99,,2013-09-06 17:03:00,
2013-09-06 13:09:00,71.6,41.0,30.22,North,-999,-999.0,-999.0,33,-99.99,,,-99.99,,2013-09-06 17:09:00,
2013-09-06 13:14:00,71.2,40.7,30.22,North,-999,-999.0,-999.0,33,-99.99,,,-99.99,,2013-09-06 17:14:00,
2013-09-06 13:19:00,71.4,41.6,30.22,North,-999,-999.0,-999.0,34,-99.99,,,-99.99,,2013-09-06 17:19:00,
2013-09-06 13:25:00,71.4,41.6,30.19,North,-999,-999.0,-999.0,34,-99.99,,,-99.99,,2013-09-06 17:25:00,
2013-09-06 13:30:00,71.6,41.0,30.19,North,-999,-999.0,-999.0,33,-99.99,,,-99.99,,2013-09-06 17:30:00,
2013-09-06 13:37:00,71.8,41.2,30.19,North,-999,-999.0,-999.0,33,-99.99,,,-99.99,,2013-09-06 17:37:00,
2013-09-06 13:42:00,71.6,41.0,30.19,North,-999,-999.0,-999.0,33,-99.99,,,-99.99,,2013-09-06 17:42:00,
2013-09-06 13:48:00,71.8,41.2,30.19,North,-999,-999.0,-999.0,33,-99.99,,,-99.99,,2013-09-06 17:48:00,
2013-09-06 13:53:00,71.8,41.2,30.19,North,-999,-999.0,-999.0,33,-99.99,,,-99.99,,2013-09-06 17:53:00,
2013-09-06 13:59:00,71.6,41.0,30.19,North,-999,-999.0,-999.0,33,-99.99,,,-99.99,,2013-09-06 17:59:00,
2013-09-06 14:04:00,71.6,41.0,30.19,North,-999,-999.0,-999.0,33,-99.99,,,-99.99,,2013-09-06 18:04:00,
2013-09-06 14:09:00,71.4,40.8,30.19,North,-999,-999.0,-999.0,33,-99.99,,,-99.99,,2013-09-06 18:09:00,
2013-09-06 14:14:00,71.4,40.8,30.19,North,-999,-999.0,-999.0,33,-99.99,,,-99.99,,2013-09-06 18:14:00,
2013-09-06 14:19:00,71.2,39.9,30.19,North,-999,-999.0,-999.0,32,-99.99,,,-99.99,,2013-09-06 18:19:00,
2013-09-06 14:25:00,71.2,40.7,30.19,North,-999,-999.0,-999.0,33,-99.99,,,-99.99,,2013-09-06 18:25:00,
2013-09-06 14:30:00,71.4,40.8,30.19,North,-999,-999.0,-999.0,33,-99.99,,,-99.99,,2013-09-06 18:30:00,
2013-09-06 14:35:00,71.4,40.8,30.19,North,-999,-999.0,-999.0,33,-99.99,,,-99.99,,2013-09-06 18:35:00,
2013-09-06 14:40:00,71.6,41.0,30.16,North,-999,-999.0,-999.0,33,-99.99,,,-99.99,,2013-09-06 18:40:00,
2013-09-06 14:46:00,71.4,40.8,30.16,North,-999,-999.0,-999.0,33,-99.99,,,-99.99,,2013-09-06 18:46:00,
2013-09-06 14:52:00,71.6,41.0,30.16,North,-999,-999.0,-999.0,33,-99.99,,,-99.99,,2013-09-06 18:52:00,
2013-09-06 14:57:00,71.6,41.0,30.16,North,-999,-999.0,-999.0,33,-99.99,,,-99.99,,2013-09-06 18:57:00,
2013-09-06 15:03:00,71.4,40.8,30.16,North,-999,-999.0,-999.0,33,-99.99,,,-99.99,,2013-09-06 19:03:00,
2013-09-06 15:08:00,71.6,41.0,30.16,North,-999,-999.0,-999.0,33,-99.99,,,-99.99,,2013-09-06 19:08:00,
2013-09-06 15:13:00,71.6,41.0,30.16,North,-999,-999.0,-999.0,33,-99.99,,,-99.99,,2013-09-06 19:13:00,
2013-09-06 15:19:00,71.8,41.2,30.16,North,-999,-999.0,-999.0,33,-99.99,,,-99.99,,2013-09-06 19:19:00,
2013-09-06 15:24:00,72.0,42.1,30.16,North,-999,-999.0,-999.0,34,-99.99,,,-99.99,,2013-09-06 19:24:00,
2013-09-06 15:30:00,71.8,41.2,30.16,North,-999,-999.0,-999.0,33,-99.99,,,-99.99,,2013-09-06 19:30:00,
2013-09-06 15:35:00,71.4,40.8,30.16,North,-999,-999.0,-999.0,33,-99.99,,,-99.99,,2013-09-06 19:35:00,
2013-09-06 15:40:00,71.6,41.0,30.16,North,-999,-999.0,-999.0,33,-99.99,,,-99.99,,2013-09-06 19:40:00,
2013-09-06 15:45:00,71.6,41.0,30.16,North,-999,-999.0,-999.0,33,-99.99,,,-99.99,,2013-09-06 19:45:00,
2013-09-06 15:50:00,71.8,41.9,30.16,North,-999,-999.0,-999.0,34,-99.99,,,-99.99,,2013-09-06 19:50:00,
2013-09-06 15:56:00,71.8,41.2,30.16,North,-999,-999.0,-999.0,33,-99.99,,,-99.99,,2013-09-06 19:56:00,
2013-09-06 16:01:00,71.6,41.0,30.16,North,-999,-999.0,-999.0,33,-99.99,,,-99.99,,2013-09-06 20:01:00,
2013-09-06 16:07:00,71.6,41.0,30.16,North,-999,-999.0,-999.0,33,-99.99,,,-99.99,,2013-09-06 20:07:00,
2013-09-06 16:13:00,71.6,41.0,30.13,North,-999,-999.0,-999.0,33,-99.99,,,-99.99,,2013-09-06 20:13:00,
2013-09-06 16:18:00,71.4,40.8,30.13,North,-999,-999.0,-999.0,33,-99.99,,,-99.99,,2013-09-06 20:18:00,
2013-09-06 16:23:00,71.4,40.8,30.13,North,-999,-999.0,-999.0,33,-99.99,,,-99.99,,2013-09-06 20:23:00,
2013-09-06 16:30:00,71.4,40.8,30.13,North,-999,-999.0,-999.0,33,-99.99,,,-99.99,,2013-09-06 20:30:00,
2013-09-06 16:35:00,71.4,41.6,30.13,North,-999,-999.0,-999.0,34,-99.99,,,-99.99,,2013-09-06 20:35:00,
2013-09-06 16:40:00,71.4,40.8,30.13,North,-999,-999.0,-999.0,33,-99.99,,,-99.99,,2013-09-06 20:40:00,
2013-09-06 16:46:00,71.1,40.5,30.13,North,-999,-999.0,-999.0,33,-99.99,,,-99.99,,2013-09-06 20:46:00,
2013-09-06 16:52:00,71.2,41.5,30.13,North,-999,-999.0,-999.0,34,-99.99,,,-99.99,,2013-09-06 20:52:00,
2013-09-06 16:57:00,71.2,40.7,30.13,North,-999,-999.0,-999.0,33,-99.99,,,-99.99,,2013-09-06 20:57:00,
2013-09-06 17:02:00,71.2,41.5,30.13,North,-999,-999.0,-999.0,34,-99.99,,,-99.99,,2013-09-06 21:02:00,
2013-09-06 17:07:00,71.1,41.3,30.13,North,-999,-999.0,-999.0,34,-99.99,,,-99.99,,2013-09-06 21:07:00,
2013-09-06 17:13:00,70.9,40.4,30.13,North,-999,-999.0,-999.0,33,-99.99,,,-99.99,,2013-09-06 21:13:00,
2013-09-06 17:19:00,70.9,40.4,30.13,North,-999,-999.0,-999.0,33,-99.99,,,-99.99,,2013-09-06 21:19:00,
2013-09-06 17:24:00,70.7,41.0,30.13,North,-999,-999.0,-999.0,34,-99.99,,,-99.99,,2013-09-06 21:24:00,
2013-09-06 17:29:00,70.5,40.8,30.13,North,-999,-999.0,-999.0,34,-99.99,,,-99.99,,2013-09-06 21:29:00,
2013-09-06 17:35:00,70.7,41.0,30.13,North,-999,-999.0,-999.0,34,-99.99,,,-99.99,,2013-09-06 21:35:00,
2013-09-06 17:40:00,70.7,41.0,30.10,North,-999,-999.0,-999.0,34,-99.99,,,-99.99,,2013-09-06 21:40:00,
2013-09-06 17:45:00,70.7,41.0,30.10,North,-999,-999.0,-999.0,34,-99.99,,,-99.99,,2013-09-06 21:45:00,
2013-09-06 17:51:00,70.5,40.8,30.10,North,-999,-999.0,-999.0,34,-99.99,,,-99.99,,2013-09-06 21:51:00,
2013-09-06 17:56:00,70.3,40.7,30.13,North,-999,-999.0,-999.0,34,-99.99,,,-99.99,,2013-09-06 21:56:00,
2013-09-06 18:01:00,70.2,41.3,30.13,North,-999,-999.0,-999.0,35,-99.99,,,-99.99,,2013-09-06 22:01:00,
2013-09-06 18:06:00,70.2,41.3,30.13,North,-999,-999.0,-999.0,35,-99.99,,,-99.99,,2013-09-06 22:06:00,
2013-09-06 18:11:00,70.0,41.1,30.13,North,-999,-999.0,-999.0,35,-99.99,,,-99.99,,2013-09-06 22:11:00,
2013-09-06 18:17:00,70.0,40.4,30.13,North,-999,-999.0,-999.0,34,-99.99,,,-99.99,,2013-09-06 22:17:00,
2013-09-06 18:22:00,69.8,40.9,30.13,North,-999,-999.0,-999.0,35,-99.99,,,-99.99,,2013-09-06 22:22:00,
2013-09-06 18:27:00,69.6,40.8,30.13,North,-999,-999.0,-999.0,35,-99.99,,,-99.99,,2013-09-06 22:27:00,
2013-09-06 18:33:00,69.4,40.6,30.13,North,-999,-999.0,-999.0,35,-99.99,,,-99.99,,2013-09-06 22:33:00,
2013-09-06 18:39:00,69.3,40.5,30.13,North,-999,-999.0,-999.0,35,-99.99,,,-99.99,,2013-09-06 22:39:00,
2013-09-06 18:44:00,69.1,41.0,30.13,North,-999,-999.0,-999.0,36,-99.99,,,-99.99,,2013-09-06 22:44:00,
2013-09-06 18:49:00,68.9,41.6,30.13,North,-999,-999.0,-999.0,37,-99.99,,,-99.99,,2013-09-06 22:49:00,
2013-09-06 18:54:00,68.7,41.4,30.13,North,-999,-999.0,-999.0,37,-99.99,,,-99.99,,2013-09-06 22:54:00,
2013-09-06 19:00:00,68.4,41.1,30.13,North,-999,-999.0,-999.0,37,-99.99,,,-99.99,,2013-09-06 23:00:00,
2013-09-06 19:05:00,68.2,41.6,30.13,North,-999,-999.0,-999.0,38,-99.99,,,-99.99,,2013-09-06 23:05:00,
2013-09-06 19:11:00,68.0,42.1,30.13,North,-999,-999.0,-999.0,39,-99.99,,,-99.99,,2013-09-06 23:11:00,
2013-09-06 19:16:00,67.6,43.1,30.13,North,-999,-999.0,-999.0,41,-99.99,,,-99.99,,2013-09-06 23:16:00,
2013-09-06 19:22:00,67.3,43.4,30.13,North,-999,-999.0,-999.0,42,-99.99,,,-99.99,,2013-09-06 23:22:00,
2013-09-06 19:28:00,67.1,43.9,30.13,North,-999,-999.0,-999.0,43,-99.99,,,-99.99,,2013-09-06 23:28:00,
2013-09-06 19:33:00,66.7,43.6,30.13,North,-999,-999.0,-999.0,43,-99.99,,,-99.99,,2013-09-06 23:33:00,
2013-09-06 19:39:00,66.6,44.0,30.13,North,-999,-999.0,-999.0,44,-99.99,,,-99.99,,2013-09-06 23:39:00,
2013-09-06 19:44:00,66.4,43.8,30.10,North,-999,-999.0,-999.0,44,-99.99,,,-99.99,,2013-09-06 23:44:00,
2013-09-06 19:49:00,66.2,43.7,30.10,North,-999,-999.0,-999.0,44,-99.99,,,-99.99,,2013-09-06 23:49:00,
2013-09-06 19:54:00,66.0,44.1,30.10,North,-999,-999.0,-999.0,45,-99.99,,,-99.99,,2013-09-06 23:54:00,
2013-09-06 19:59:00,65.8,43.9,30.10,North,-999,-999.0,-999.0,45,-99.99,,,-99.99,,2013-09-06 23:59:00,
2013-09-06 20:05:00,65.7,44.3,30.10,North,-999,-999.0,-999.0,46,-99.99,,,-99.99,,2013-09-07 00:05:00,
2013-09-06 20:10:00,65.5,44.7,30.10,North,-999,-999.0,-999.0,47,-99.99,,,-99.99,,2013-09-07 00:10:00,
2013-09-06 20:15:00,65.1,44.4,30.10,North,-999,-999.0,-999.0,47,-99.99,,,-99.99,,2013-09-07 00:15:00,
2013-09-06 20:21:00,64.9,44.2,30.10,North,-999,-999.0,-999.0,47,-99.99,,,-99.99,,2013-09-07 00:21:00,
2013-09-06 20:26:00,64.9,44.8,30.10,North,-999,-999.0,-999.0,48,-99.99,,,-99.99,,2013-09-07 00:26:00,
2013-09-06 20:31:00,64.8,44.6,30.10,North,-999,-999.0,-999.0,48,-99.99,,,-99.99,,2013-09-07 00:31:00,
2013-09-06 20:36:00,64.8,44.6,30.10,North,-999,-999.0,-999.0,48,-99.99,,,-99.99,,2013-09-07 00:36:00,
2013-09-06 20:42:00,64.4,44.8,30.10,North,-999,-999.0,-999.0,49,-99.99,,,-99.99,,2013-09-07 00:42:00,
2013-09-06 20:47:00,64.2,45.2,30.10,North,-999,-999.0,-999.0,50,-99.99,,,-99.99,,2013-09-07 00:47:00,
2013-09-06 20:52:00,64.0,45.0,30.10,North,-999,-999.0,-999.0,50,-99.99,,,-99.99,,2013-09-07 00:52:00,
2013-09-06 20:57:00,63.9,44.9,30.10,North,-999,-999.0,-999.0,50,-99.99,,,-99.99,,2013-09-07 00:57:00,
2013-09-06 21:02:00,63.5,45.1,30.10,North,-999,-999.0,-999.0,51,-99.99,,,-99.99,,2013-09-07 01:02:00,
2013-09-06 21:08:00,63.3,44.9,30.10,North,-999,-999.0,-999.0,51,-99.99,,,-99.99,,2013-09-07 01:08:00,
2013-09-06 21:13:00,63.1,45.2,30.10,North,-999,-999.0,-999.0,52,-99.99,,,-99.99,,2013-09-07 01:13:00,
2013-09-06 21:20:00,62.8,45.4,30.10,North,-999,-999.0,-999.0,53,-99.99,,,-99.99,,2013-09-07 01:20:00,
2013-09-06 21:26:00,62.6,45.3,30.10,North,-999,-999.0,-999.0,53,-99.99,,,-99.99,,2013-09-07 01:26:00,
2013-09-06 21:31:00,62.4,45.6,30.10,North,-999,-999.0,-999.0,54,-99.99,,,-99.99,,2013-09-07 01:31:00,
2013-09-06 21:37:00,62.2,45.9,30.10,North,-999,-999.0,-999.0,55,-99.99,,,-99.99,,2013-09-07 01:37:00,
2013-09-06 21:42:00,62.2,45.9,30.10,North,-999,-999.0,-999.0,55,-99.99,,,-99.99,,2013-09-07 01:42:00,
2013-09-06 21:49:00,62.2,45.9,30.10,North,-999,-999.0,-999.0,55,-99.99,,,-99.99,,2013-09-07 01:49:00,
2013-09-06 21:54:00,62.2,46.4,30.10,North,-999,-999.0,-999.0,56,-99.99,,,-99.99,,2013-09-07 01:54:00,
2013-09-06 21:59:00,61.9,46.0,30.10,North,-999,-999.0,-999.0,56,-99.99,,,-99.99,,2013-09-07 01:59:00,
2013-09-06 22:04:00,61.7,46.3,30.10,North,-999,-999.0,-999.0,57,-99.99,,,-99.99,,2013-09-07 02:04:00,
2013-09-06 22:09:00,61.7,46.3,30.10,North,-999,-999.0,-999.0,57,-99.99,,,-99.99,,2013-09-07 02:09:00,
2013-09-06 22:16:00,61.5,46.6,30.10,North,-999,-999.0,-999.0,58,-99.99,,,-99.99,,2013-09-07 02:16:00,
2013-09-06 22:21:00,61.3,46.5,30.10,North,-999,-999.0,-999.0,58,-99.99,,,-99.99,,2013-09-07 02:21:00,
2013-09-06 22:26:00,61.3,46.5,30.10,North,-999,-999.0,-999.0,58,-99.99,,,-99.99,,2013-09-07 02:26:00,
2013-09-06 22:33:00,61.2,46.7,30.10,North,-999,-999.0,-999.0,59,-99.99,,,-99.99,,2013-09-07 02:33:00,
2013-09-06 22:38:00,61.2,46.7,30.10,North,-999,-999.0,-999.0,59,-99.99,,,-99.99,,2013-09-07 02:38:00,
2013-09-06 22:43:00,60.8,46.4,30.07,North,-999,-999.0,-999.0,59,-99.99,,,-99.99,,2013-09-07 02:43:00,
2013-09-06 22:48:00,60.6,46.7,30.07,North,-999,-999.0,-999.0,60,-99.99,,,-99.99,,2013-09-07 02:48:00,
2013-09-06 22:54:00,60.6,46.7,30.07,North,-999,-999.0,-999.0,60,-99.99,,,-99.99,,2013-09-07 02:54:00,
2013-09-06 22:59:00,60.6,46.7,30.07,North,-999,-999.0,-999.0,60,-99.99,,,-99.99,,2013-09-07 02:59:00,
2013-09-06 23:05:00,60.4,46.5,30.07,North,-999,-999.0,-999.0,60,-99.99,,,-99.99,,2013-09-07 03:05:00,
2013-09-06 23:10:00,60.4,46.5,30.07,North,-999,-999.0,-999.0,60,-99.99,,,-99.99,,2013-09-07 03:10:00,
2013-09-06 23:15:00,60.4,46.5,30.07,North,-999,-999.0,-999.0,60,-99.99,,,-99.99,,2013-09-07 03:15:00,
2013-09-06 23:20:00,60.4,46.5,30.07,North,-999,-999.0,-999.0,60,-99.99,,,-99.99,,2013-09-07 03:20:00,
2013-09-06 23:26:00,60.4,46.1,30.07,North,-999,-999.0,-999.0,59,-99.99,,,-99.99,,2013-09-07 03:26:00,
2013-09-06 23:31:00,60.4,46.1,30.07,North,-999,-999.0,-999.0,59,-99.99,,,-99.99,,2013-09-07 03:31:00,
2013-09-06 23:36:00,60.4,46.1,30.07,North,-999,-999.0,-999.0,59,-99.99,,,-99.99,,2013-09-07 03:36:00,
2013-09-06 23:42:00,60.3,45.4,30.07,North,-999,-999.0,-999.0,58,-99.99,,,-99.99,,2013-09-07 03:42:00,
2013-09-06 23:47:00,60.3,45.4,30.07,North,-999,-999.0,-999.0,58,-99.99,,,-99.99,,2013-09-07 03:47:00,
2013-09-06 23:53:00,60.1,45.3,30.07,North,-999,-999.0,-999.0,58,-99.99,,,-99.99,,2013-09-07 03:53:00,
2013-09-06 23:58:00,60.1,45.3,30.07,North,-999,-999.0,-999.0,58,-99.99,,,-99.99,,2013-09-07 03:58:00,